Time;durP1;ratioP1;P1;durP2;ratioP2;P2;SDS_P1;SDS_P2;PMS_P1;PMS_P2;Temp;Humidity;BMP_temperature;BMP_pressure;BME280_temperature;BME280_humidity;BME280_pressure;Samples;Min_cycle;Max_cycle;Signal;HPM_P1;HPM_P2
2023/05/05 00:00:53;;;;;;;6.97;3.72;;;11.20;99.90;;;;;;5090475;28;20040;-76
2023/05/05 00:03:20;;;;;;;6.07;3.83;;;11.20;99.90;;;;;;5090219;28;20039;-76
2023/05/05 00:05:47;;;;;;;7.47;3.70;;;11.20;99.90;;;;;;5090492;28;20396;-76
2023/05/05 00:08:12;;;;;;;9.82;3.92;;;11.20;99.90;;;;;;5090088;28;20072;-76
2023/05/05 00:10:38;;;;;;;7.32;4.35;;;11.20;99.90;;;;;;5090144;28;20530;-75
2023/05/05 00:13:04;;;;;;;6.72;4.07;;;11.20;99.90;;;;;;5090250;28;20533;-75
2023/05/05 00:15:29;;;;;;;5.72;3.90;;;11.20;99.90;;;;;;5060869;28;20047;-77
2023/05/05 00:17:55;;;;;;;7.05;3.95;;;11.20;99.90;;;;;;5088199;28;20048;-75
2023/05/05 00:20:21;;;;;;;5.55;4.03;;;11.20;99.90;;;;;;5090281;28;20032;-75
2023/05/05 00:22:47;;;;;;;7.50;4.20;;;11.20;99.90;;;;;;5089954;28;20040;-75
2023/05/05 00:25:12;;;;;;;8.13;4.05;;;11.20;99.90;;;;;;5090110;28;20461;-75
2023/05/05 00:27:38;;;;;;;6.70;3.83;;;11.20;99.90;;;;;;5091095;28;20043;-74
2023/05/05 00:30:04;;;;;;;6.10;3.83;;;11.20;99.90;;;;;;5089106;28;20044;-74
2023/05/05 00:32:30;;;;;;;10.45;4.00;;;11.30;99.90;;;;;;5089862;28;20044;-75
2023/05/05 00:34:55;;;;;;;6.88;4.30;;;11.20;99.90;;;;;;5089921;28;20036;-74
2023/05/05 00:37:21;;;;;;;7.13;3.92;;;11.30;99.90;;;;;;5089801;28;20043;-76
2023/05/05 00:39:46;;;;;;;8.15;3.88;;;11.30;99.90;;;;;;5089643;28;20051;-74
2023/05/05 00:42:12;;;;;;;6.57;3.80;;;11.30;99.90;;;;;;5089909;28;20110;-75
2023/05/05 00:44:40;;;;;;;7.50;3.75;;;11.30;99.90;;;;;;5089618;28;20039;-74
2023/05/05 00:47:07;;;;;;;8.57;3.70;;;11.30;99.90;;;;;;5089820;28;20036;-74
2023/05/05 00:49:34;;;;;;;6.75;4.20;;;11.30;99.90;;;;;;5089921;28;20515;-74
2023/05/05 00:52:00;;;;;;;11.02;4.05;;;11.30;99.90;;;;;;5089690;28;20134;-74
2023/05/05 00:54:26;;;;;;;6.68;3.80;;;11.20;99.90;;;;;;5089641;28;20499;-74
2023/05/05 00:56:52;;;;;;;6.38;3.90;;;11.30;99.90;;;;;;5103295;28;20082;-74
2023/05/05 00:59:18;;;;;;;6.55;3.70;;;11.20;99.90;;;;;;5090119;28;20036;-74
2023/05/05 01:01:45;;;;;;;6.03;4.10;;;11.30;99.90;;;;;;5089534;28;20029;-73
2023/05/05 01:04:10;;;;;;;10.15;4.78;;;11.20;99.90;;;;;;5089575;28;20119;-73
2023/05/05 01:07:02;;;;;;;7.32;3.40;;;11.20;99.90;;;;;;5091087;28;20107;-73
2023/05/05 01:09:48;;;;;;;7.35;3.78;;;11.20;99.90;;;;;;5053569;28;20072;-73
2023/05/05 01:12:32;;;;;;;7.00;4.05;;;11.20;99.90;;;;;;5076984;28;20048;-73
2023/05/05 01:15:20;;;;;;;5.90;3.70;;;11.10;99.90;;;;;;5090899;28;20051;-73
2023/05/05 01:17:55;;;;;;;7.18;3.92;;;11.00;99.90;;;;;;5089348;28;20044;-72
2023/05/05 01:20:40;;;;;;;7.55;3.88;;;11.00;99.90;;;;;;5090631;28;20031;-72
2023/05/05 01:23:08;;;;;;;6.00;3.90;;;11.00;99.90;;;;;;5089496;28;20096;-72
2023/05/05 01:26:07;;;;;;;6.63;3.75;;;11.00;99.90;;;;;;5091165;28;20032;-72
2023/05/05 01:28:41;;;;;;;7.00;3.70;;;11.00;99.90;;;;;;5106225;28;20051;-73
2023/05/05 01:31:25;;;;;;;5.88;3.92;;;11.00;99.90;;;;;;5089297;28;20075;-72
2023/05/05 01:34:06;;;;;;;6.13;3.83;;;11.00;99.90;;;;;;5089553;28;20111;-73
2023/05/05 01:36:38;;;;;;;7.95;4.20;;;11.00;99.90;;;;;;5089547;28;20546;-72
2023/05/05 01:39:07;;;;;;;5.53;3.60;;;11.00;99.90;;;;;;5089219;28;20032;-74
2023/05/05 01:41:40;;;;;;;6.15;3.83;;;10.90;99.90;;;;;;5092464;28;20073;-72
2023/05/05 01:44:07;;;;;;;8.50;3.67;;;10.90;99.90;;;;;;5093037;28;20770;-72
2023/05/05 01:46:35;;;;;;;9.80;4.28;;;10.90;99.90;;;;;;5093321;28;20448;-72
2023/05/05 01:49:01;;;;;;;6.85;4.05;;;10.90;99.90;;;;;;5092766;28;20079;-72
2023/05/05 01:51:28;;;;;;;6.20;4.10;;;10.90;99.90;;;;;;5092772;28;20093;-74
2023/05/05 01:53:57;;;;;;;9.07;4.75;;;10.90;99.90;;;;;;5092652;28;20040;-72
2023/05/05 01:56:25;;;;;;;7.95;3.90;;;10.90;99.90;;;;;;5102293;28;20039;-72
2023/05/05 01:58:51;;;;;;;8.65;4.20;;;10.90;99.90;;;;;;5097158;28;20384;-71
2023/05/05 02:01:20;;;;;;;6.53;4.05;;;10.90;99.90;;;;;;5094084;28;20048;-71
2023/05/05 02:03:48;;;;;;;8.60;3.90;;;10.90;99.90;;;;;;5092566;28;20047;-71
2023/05/05 02:06:15;;;;;;;10.88;4.50;;;10.90;99.90;;;;;;5092426;28;20040;-71
2023/05/05 02:08:42;;;;;;;7.20;4.05;;;10.90;99.90;;;;;;5093841;28;20047;-72
2023/05/05 02:11:10;;;;;;;8.75;4.28;;;10.80;99.90;;;;;;5093883;28;20079;-72
2023/05/05 02:13:37;;;;;;;8.80;4.57;;;10.80;99.90;;;;;;5092646;28;20117;-71
2023/05/05 02:16:04;;;;;;;5.97;4.20;;;10.80;99.90;;;;;;5092342;28;20036;-72
2023/05/05 02:18:34;;;;;;;6.85;4.03;;;10.80;99.90;;;;;;5092142;28;20039;-72
2023/05/05 02:21:00;;;;;;;6.95;4.10;;;10.80;99.90;;;;;;5092253;28;20051;-71
2023/05/05 02:23:25;;;;;;;8.20;4.10;;;10.80;99.90;;;;;;5092277;28;20089;-71
2023/05/05 02:25:54;;;;;;;6.93;3.95;;;10.80;99.90;;;;;;5092198;28;20491;-71
2023/05/05 02:28:30;;;;;;;9.00;3.85;;;10.80;99.90;;;;;;5092153;28;20403;-71
2023/05/05 02:30:58;;;;;;;8.15;4.35;;;10.70;99.90;;;;;;5092298;28;20075;-71
2023/05/05 02:33:26;;;;;;;8.95;4.40;;;10.70;99.90;;;;;;5108926;28;20081;-71
2023/05/05 02:35:54;;;;;;;7.10;4.30;;;10.70;99.90;;;;;;5092268;28;20088;-71
2023/05/05 02:38:28;;;;;;;7.30;3.97;;;10.80;99.90;;;;;;5092937;28;20078;-71
2023/05/05 02:40:56;;;;;;;11.70;4.57;;;10.70;99.90;;;;;;5092270;28;20047;-71
2023/05/05 02:43:24;;;;;;;7.35;4.32;;;10.70;99.90;;;;;;5093014;28;20107;-71
2023/05/05 02:45:49;;;;;;;7.25;4.50;;;10.70;99.90;;;;;;5091754;28;20035;-70
2023/05/05 02:48:15;;;;;;;7.68;4.18;;;10.70;99.90;;;;;;5092737;28;20154;-71
2023/05/05 02:50:40;;;;;;;9.35;4.80;;;10.70;99.90;;;;;;5093009;28;20396;-71
2023/05/05 02:53:06;;;;;;;8.65;4.75;;;10.70;99.90;;;;;;5090902;28;20036;-70
2023/05/05 02:55:47;;;;;;;8.07;4.43;;;10.70;99.90;;;;;;5093672;28;20115;-70
2023/05/05 02:58:21;;;;;;;9.48;4.40;;;10.70;99.90;;;;;;5084030;28;20504;-71
2023/05/05 03:00:54;;;;;;;8.73;4.50;;;10.70;99.90;;;;;;5091526;28;20117;-71
2023/05/05 03:03:43;;;;;;;7.10;4.50;;;10.70;99.90;;;;;;5091770;28;20047;-71
2023/05/05 03:06:19;;;;;;;9.30;4.43;;;10.60;99.90;;;;;;5108644;28;20400;-71
2023/05/05 03:09:23;;;;;;;5.85;3.70;;;10.60;99.90;;;;;;5108117;28;20048;-70
2023/05/05 03:11:59;;;;;;;6.10;4.25;;;10.50;99.90;;;;;;5091496;28;20044;-70
2023/05/05 03:14:27;;;;;;;6.25;4.15;;;10.50;99.90;;;;;;5091296;28;20118;-71
2023/05/05 03:16:55;;;;;;;8.38;4.18;;;10.50;99.90;;;;;;5091395;28;20040;-71
2023/05/05 03:19:22;;;;;;;4.93;4.05;;;10.50;99.90;;;;;;5090881;28;20052;-70
2023/05/05 03:21:48;;;;;;;6.53;4.13;;;10.50;99.90;;;;;;5091191;28;20040;-71
2023/05/05 03:24:16;;;;;;;7.47;4.03;;;10.50;99.90;;;;;;5092251;28;20557;-70
2023/05/05 03:26:42;;;;;;;8.05;3.92;;;10.50;99.90;;;;;;5091020;28;20043;-71
2023/05/05 03:29:08;;;;;;;7.80;4.03;;;10.60;99.90;;;;;;5090797;28;20046;-70
2023/05/05 03:31:34;;;;;;;6.60;4.15;;;10.50;99.90;;;;;;5091063;28;20118;-71
2023/05/05 03:33:59;;;;;;;7.15;4.35;;;10.60;99.90;;;;;;5090877;28;20054;-70
2023/05/05 03:36:26;;;;;;;7.10;3.80;;;10.60;99.90;;;;;;5090689;28;20046;-70
2023/05/05 03:38:52;;;;;;;7.00;4.90;;;10.60;99.90;;;;;;5090594;28;20093;-70
2023/05/05 03:41:18;;;;;;;8.38;4.35;;;10.60;99.90;;;;;;5091020;28;20036;-71
2023/05/05 03:43:43;;;;;;;8.23;4.10;;;10.60;99.90;;;;;;5090755;28;20500;-71
2023/05/05 03:46:09;;;;;;;7.53;4.15;;;10.60;99.90;;;;;;5090665;28;20039;-71
2023/05/05 03:48:35;;;;;;;7.22;4.10;;;10.60;99.90;;;;;;5090626;28;20047;-71
2023/05/05 03:51:00;;;;;;;7.55;4.00;;;10.60;99.90;;;;;;5092113;28;20063;-71
2023/05/05 03:53:26;;;;;;;8.02;4.05;;;10.70;99.90;;;;;;5090408;28;20044;-70
2023/05/05 03:55:51;;;;;;;6.65;3.88;;;10.70;99.90;;;;;;5095227;28;20146;-71
2023/05/05 03:58:17;;;;;;;7.20;4.60;;;10.70;99.90;;;;;;5099732;28;20036;-71
2023/05/05 04:00:43;;;;;;;7.97;4.07;;;10.70;99.90;;;;;;5090455;28;20035;-71
2023/05/05 04:03:08;;;;;;;6.53;4.18;;;10.70;99.90;;;;;;5090027;28;20078;-71
2023/05/05 04:05:34;;;;;;;8.80;4.45;;;10.70;99.90;;;;;;5090340;28;20431;-70
2023/05/05 04:08:00;;;;;;;6.90;3.90;;;10.70;99.90;;;;;;5090451;28;20067;-71
2023/05/05 04:10:26;;;;;;;6.63;4.15;;;10.80;99.90;;;;;;5090167;28;20123;-71
2023/05/05 04:12:51;;;;;;;8.93;4.25;;;10.80;99.90;;;;;;5091467;28;20072;-71
2023/05/05 04:15:17;;;;;;;5.45;4.20;;;10.80;99.90;;;;;;5090191;28;20067;-71
2023/05/05 04:17:42;;;;;;;9.82;4.30;;;10.80;99.90;;;;;;5089946;28;20144;-71
2023/05/05 04:20:08;;;;;;;8.68;4.25;;;10.80;99.90;;;;;;5089908;28;20040;-72
2023/05/05 04:22:34;;;;;;;8.18;4.55;;;10.80;99.90;;;;;;5090260;28;20503;-71
2023/05/05 04:25:00;;;;;;;6.85;4.90;;;10.70;99.90;;;;;;5091370;28;20047;-71
2023/05/05 04:27:27;;;;;;;8.38;4.55;;;10.70;99.90;;;;;;5090106;28;20067;-71
2023/05/05 04:29:53;;;;;;;6.78;4.63;;;10.60;99.90;;;;;;5089731;28;20093;-71
2023/05/05 04:32:18;;;;;;;8.73;4.65;;;10.60;99.90;;;;;;5091246;28;20040;-71
2023/05/05 04:34:44;;;;;;;9.57;5.10;;;10.60;99.90;;;;;;5090083;28;20028;-70
2023/05/05 04:37:10;;;;;;;9.07;5.05;;;10.50;99.90;;;;;;5089829;28;20068;-71
2023/05/05 04:39:35;;;;;;;8.10;4.57;;;10.50;99.90;;;;;;5089523;28;20055;-71
2023/05/05 04:42:01;;;;;;;7.47;4.85;;;10.40;99.90;;;;;;5091178;28;20036;-70
2023/05/05 04:44:26;;;;;;;10.30;5.07;;;10.40;99.90;;;;;;5091017;28;20036;-70
2023/05/05 04:46:52;;;;;;;11.30;5.32;;;10.30;99.90;;;;;;5089600;28;20036;-70
2023/05/05 04:49:17;;;;;;;9.90;5.57;;;10.30;99.90;;;;;;5089578;28;20097;-70
2023/05/05 04:51:43;;;;;;;7.00;5.03;;;10.20;99.90;;;;;;5088200;28;20530;-70
2023/05/05 04:54:09;;;;;;;7.57;4.97;;;10.20;99.90;;;;;;5078227;28;20040;-70
2023/05/05 04:56:34;;;;;;;11.68;5.43;;;10.20;99.90;;;;;;5100581;28;20043;-70
2023/05/05 04:59:00;;;;;;;9.32;5.03;;;10.20;99.90;;;;;;5092664;28;20054;-71
2023/05/05 05:01:25;;;;;;;10.50;5.45;;;10.10;99.90;;;;;;5089589;28;20044;-71
2023/05/05 05:03:51;;;;;;;8.60;5.10;;;10.10;99.90;;;;;;5089551;28;20040;-71
2023/05/05 05:06:16;;;;;;;8.35;5.47;;;10.00;99.90;;;;;;5089926;28;20047;-71
2023/05/05 05:08:42;;;;;;;10.40;5.20;;;10.00;99.90;;;;;;5089586;28;20046;-71
2023/05/05 05:11:07;;;;;;;8.57;5.45;;;10.00;99.90;;;;;;5089548;28;20498;-70
2023/05/05 05:13:33;;;;;;;7.72;5.65;;;10.00;99.90;;;;;;5089578;28;20491;-70
2023/05/05 05:16:00;;;;;;;9.43;5.13;;;9.90;99.90;;;;;;5091981;28;20040;-70
2023/05/05 05:18:25;;;;;;;8.10;5.35;;;9.90;99.90;;;;;;5094738;28;20044;-71
2023/05/05 05:20:51;;;;;;;7.25;5.30;;;9.90;99.90;;;;;;5093402;28;20127;-71
2023/05/05 05:23:16;;;;;;;6.88;5.40;;;10.00;99.90;;;;;;5093432;28;20032;-71
2023/05/05 05:25:42;;;;;;;7.60;5.38;;;10.00;99.90;;;;;;5093612;28;20495;-70
2023/05/05 05:28:08;;;;;;;8.90;6.15;;;9.90;99.90;;;;;;5092971;28;20115;-71
2023/05/05 05:30:34;;;;;;;9.13;5.93;;;9.90;99.90;;;;;;5093509;28;20468;-71
2023/05/05 05:33:00;;;;;;;8.90;5.72;;;9.90;99.90;;;;;;5093091;28;20093;-71
2023/05/05 05:35:26;;;;;;;8.35;5.88;;;9.90;99.90;;;;;;5093497;28;20422;-71
2023/05/05 05:37:51;;;;;;;8.90;5.57;;;9.90;99.90;;;;;;5092879;28;20028;-71
2023/05/05 05:40:17;;;;;;;9.23;6.03;;;10.00;99.90;;;;;;5093152;28;20096;-71
2023/05/05 05:42:42;;;;;;;8.88;5.75;;;10.10;99.90;;;;;;5093173;28;20036;-71
2023/05/05 05:45:08;;;;;;;8.65;6.25;;;10.20;99.90;;;;;;5092879;28;20024;-71
2023/05/05 05:47:34;;;;;;;8.57;5.97;;;10.30;99.90;;;;;;5093166;28;20032;-71
2023/05/05 05:50:00;;;;;;;10.05;6.20;;;10.40;99.90;;;;;;5092718;28;20040;-71
2023/05/05 05:52:25;;;;;;;9.35;5.60;;;10.40;99.90;;;;;;5092910;28;20039;-71
2023/05/05 05:54:51;;;;;;;8.23;5.70;;;10.50;99.90;;;;;;5092572;28;20032;-71
2023/05/05 05:57:17;;;;;;;9.90;6.03;;;10.50;99.90;;;;;;5106945;28;20086;-71
2023/05/05 05:59:43;;;;;;;10.18;6.40;;;10.60;99.90;;;;;;5092592;28;20105;-71
2023/05/05 06:02:08;;;;;;;11.43;6.05;;;10.70;99.90;;;;;;5092937;28;20032;-71
2023/05/05 06:04:34;;;;;;;9.27;5.70;;;10.80;99.90;;;;;;5092907;28;20040;-71
2023/05/05 06:07:00;;;;;;;9.85;5.90;;;10.80;99.90;;;;;;5092529;28;20042;-72
2023/05/05 06:09:25;;;;;;;13.98;6.10;;;10.80;99.90;;;;;;5056788;28;20048;-72
2023/05/05 06:11:51;;;;;;;9.98;5.80;;;10.80;99.90;;;;;;5083261;28;20036;-71
2023/05/05 06:14:17;;;;;;;11.13;6.93;;;10.80;99.90;;;;;;5092552;28;20074;-71
2023/05/05 06:16:43;;;;;;;10.98;6.60;;;10.80;99.90;;;;;;5092348;28;20039;-72
2023/05/05 06:19:09;;;;;;;9.50;6.30;;;10.90;99.90;;;;;;5093281;28;20104;-72
2023/05/05 06:21:35;;;;;;;10.30;6.15;;;10.90;99.90;;;;;;5092920;28;20119;-72
2023/05/05 06:24:01;;;;;;;8.63;6.15;;;11.00;99.90;;;;;;5092721;28;20471;-72
2023/05/05 06:26:26;;;;;;;9.65;6.22;;;11.10;99.90;;;;;;5092042;28;20067;-73
2023/05/05 06:28:52;;;;;;;10.00;6.75;;;11.10;99.90;;;;;;5091857;28;20059;-72
2023/05/05 06:31:17;;;;;;;9.73;6.80;;;11.20;99.90;;;;;;5093342;28;20499;-73
2023/05/05 06:33:43;;;;;;;11.52;6.63;;;11.30;99.90;;;;;;5092372;28;20040;-73
2023/05/05 06:36:08;;;;;;;9.77;6.45;;;11.30;99.90;;;;;;5091915;28;20048;-73
2023/05/05 06:38:34;;;;;;;11.40;6.32;;;11.40;99.90;;;;;;5093038;28;20515;-73
2023/05/05 06:40:59;;;;;;;10.68;6.70;;;11.50;99.90;;;;;;5092214;28;20044;-73
2023/05/05 06:43:27;;;;;;;11.27;6.82;;;11.50;99.90;;;;;;5092975;28;20089;-73
2023/05/05 06:45:52;;;;;;;10.25;6.40;;;11.50;99.90;;;;;;5081446;28;20041;-73
2023/05/05 06:48:18;;;;;;;10.90;7.40;;;11.50;99.90;;;;;;5074074;28;20127;-73
2023/05/05 06:50:43;;;;;;;9.15;6.72;;;11.60;99.90;;;;;;5091759;28;20529;-73
2023/05/05 06:53:09;;;;;;;12.68;6.88;;;11.60;99.90;;;;;;5092939;28;20071;-74
2023/05/05 06:55:35;;;;;;;8.23;6.13;;;11.80;99.90;;;;;;5094130;28;20491;-74
2023/05/05 06:58:01;;;;;;;7.68;6.82;;;11.80;99.90;;;;;;5103119;28;20438;-74
2023/05/05 07:00:26;;;;;;;10.20;6.75;;;11.80;99.90;;;;;;5091461;28;20455;-73
2023/05/05 07:02:52;;;;;;;12.40;6.53;;;12.10;99.90;;;;;;5091497;28;20044;-74
2023/05/05 07:05:18;;;;;;;8.95;6.38;;;11.80;99.90;;;;;;5092874;28;20032;-74
2023/05/05 07:07:53;;;;;;;9.32;6.82;;;11.90;99.90;;;;;;5091027;28;20380;-74
2023/05/05 07:10:19;;;;;;;12.55;6.95;;;12.10;99.90;;;;;;5091337;28;20043;-75
2023/05/05 07:12:45;;;;;;;9.68;6.70;;;12.20;99.90;;;;;;5091231;28;20118;-74
2023/05/05 07:15:11;;;;;;;8.98;7.07;;;12.40;99.90;;;;;;5091714;28;20503;-75
2023/05/05 07:17:36;;;;;;;9.00;6.80;;;12.50;99.90;;;;;;5091017;28;20396;-74
2023/05/05 07:20:02;;;;;;;11.25;7.55;;;12.80;99.90;;;;;;5091083;28;20488;-74
2023/05/05 07:22:27;;;;;;;9.63;7.13;;;13.00;99.90;;;;;;5091079;28;20032;-75
2023/05/05 07:24:53;;;;;;;9.52;7.22;;;13.10;99.90;;;;;;5090867;28;20043;-75
2023/05/05 07:27:19;;;;;;;10.50;7.25;;;13.20;99.90;;;;;;5091285;28;20036;-76
2023/05/05 07:29:45;;;;;;;9.30;7.43;;;13.40;99.90;;;;;;5092310;28;20075;-75
2023/05/05 07:32:10;;;;;;;10.30;7.25;;;13.50;99.90;;;;;;5091068;28;20487;-75
2023/05/05 07:34:36;;;;;;;9.65;7.03;;;13.70;99.90;;;;;;5091000;28;20479;-75
2023/05/05 07:37:03;;;;;;;10.55;6.90;;;13.80;99.90;;;;;;5090684;28;20078;-75
2023/05/05 07:39:30;;;;;;;13.90;7.53;;;13.90;99.90;;;;;;5090171;28;20063;-75
2023/05/05 07:41:55;;;;;;;8.10;6.72;;;14.10;99.90;;;;;;5090886;28;20040;-75
2023/05/05 07:44:21;;;;;;;11.00;7.85;;;14.30;99.90;;;;;;5090953;28;20036;-75
2023/05/05 07:46:46;;;;;;;9.35;7.13;;;14.40;99.90;;;;;;5090389;28;20115;-75
2023/05/05 07:49:12;;;;;;;10.93;7.40;;;14.50;99.90;;;;;;5090710;28;20116;-76
2023/05/05 07:51:37;;;;;;;10.25;7.20;;;14.70;99.90;;;;;;5090788;28;20043;-76
2023/05/05 07:54:03;;;;;;;7.85;6.97;;;14.90;99.90;;;;;;5090326;28;20054;-76
2023/05/05 07:56:29;;;;;;;13.07;7.55;;;15.00;99.90;;;;;;5100579;28;20126;-76
2023/05/05 07:58:54;;;;;;;12.70;7.72;;;15.20;99.90;;;;;;5094163;28;20499;-77
2023/05/05 08:01:20;;;;;;;11.05;7.80;;;15.30;99.90;;;;;;5090791;28;20036;-75
2023/05/05 08:03:46;;;;;;;11.30;7.43;;;15.50;99.90;;;;;;5090145;28;20127;-76
2023/05/05 08:06:15;;;;;;;11.20;7.32;;;15.60;99.90;;;;;;5090242;28;20040;-76
2023/05/05 08:08:41;;;;;;;9.57;7.57;;;15.80;99.90;;;;;;5090019;28;20074;-77
2023/05/05 08:11:06;;;;;;;13.02;7.70;;;15.90;99.90;;;;;;5090441;28;20040;-77
2023/05/05 08:13:33;;;;;;;11.02;7.63;;;15.80;99.90;;;;;;5090230;28;20051;-77
2023/05/05 08:15:59;;;;;;;8.90;7.28;;;15.90;99.90;;;;;;5090071;28;20047;-77
2023/05/05 08:18:25;;;;;;;9.88;7.85;;;16.00;99.90;;;;;;5089945;28;20047;-77
2023/05/05 08:20:51;;;;;;;11.13;8.23;;;16.20;99.90;;;;;;5090028;28;20042;-77
2023/05/05 08:23:17;;;;;;;8.57;7.25;;;16.30;99.90;;;;;;5090056;28;20040;-77
2023/05/05 08:25:43;;;;;;;10.95;8.40;;;16.50;99.90;;;;;;5060586;28;20090;-78
2023/05/05 08:28:09;;;;;;;10.48;8.13;;;16.70;99.90;;;;;;5088334;28;20463;-76
2023/05/05 08:30:34;;;;;;;10.38;7.90;;;16.70;99.90;;;;;;5090036;28;20086;-77
2023/05/05 08:33:00;;;;;;;10.43;8.00;;;16.60;99.90;;;;;;5090147;28;20085;-78
2023/05/05 08:35:25;;;;;;;9.38;8.35;;;16.60;99.90;;;;;;5089933;28;20038;-78
2023/05/05 08:37:51;;;;;;;11.48;8.13;;;16.60;99.90;;;;;;5089698;28;20461;-78
2023/05/05 08:40:19;;;;;;;10.45;7.97;;;16.70;99.90;;;;;;5089746;28;20032;-78
2023/05/05 08:42:45;;;;;;;11.43;8.38;;;16.90;99.90;;;;;;5089872;28;20131;-78
2023/05/05 08:45:11;;;;;;;12.50;8.07;;;17.00;99.90;;;;;;5089910;28;20059;-78
2023/05/05 08:47:37;;;;;;;14.00;8.20;;;17.10;99.90;;;;;;5089938;28;20036;-77
2023/05/05 08:50:04;;;;;;;13.70;9.30;;;17.20;99.90;;;;;;5091088;28;20044;-78
2023/05/05 08:52:38;;;;;;;15.02;9.00;;;17.30;99.90;;;;;;5094910;28;20043;-78
2023/05/05 08:55:18;;;;;;;11.68;8.88;;;17.20;99.90;;;;;;5095206;28;20051;-79
2023/05/05 08:57:50;;;;;;;11.90;8.93;;;17.10;99.90;;;;;;5080883;28;20044;-79
2023/05/05 09:00:18;;;;;;;12.15;9.30;;;17.00;99.90;;;;;;5095047;28;20067;-79
2023/05/05 09:02:45;;;;;;;14.07;9.52;;;17.00;99.90;;;;;;5094480;28;20043;-79
2023/05/05 09:05:10;;;;;;;11.48;9.02;;;17.10;99.90;;;;;;5095319;28;20044;-79
2023/05/05 09:07:37;;;;;;;11.98;9.55;;;17.20;99.90;;;;;;5094251;28;20032;-79
2023/05/05 09:10:04;;;;;;;11.00;9.38;;;17.40;99.90;;;;;;5095538;28;20415;-79
2023/05/05 09:12:30;;;;;;;13.05;9.50;;;17.50;99.90;;;;;;5094298;28;20097;-78
2023/05/05 09:14:56;;;;;;;10.48;9.25;;;17.70;99.90;;;;;;5094894;28;20054;-77
2023/05/05 09:17:25;;;;;;;12.32;9.15;;;17.80;99.90;;;;;;5110895;28;20414;-78
2023/05/05 09:20:06;;;;;;;12.77;10.10;;;18.10;99.90;;;;;;5093982;28;20072;-79
2023/05/05 09:22:39;;;;;;;10.45;9.10;;;18.10;99.90;;;;;;5094203;28;20074;-79
2023/05/05 09:25:07;;;;;;;12.70;9.60;;;18.20;99.90;;;;;;5095561;28;20450;-79
2023/05/05 09:27:37;;;;;;;11.95;9.23;;;18.10;99.90;;;;;;5094438;28;20450;-79
2023/05/05 09:30:11;;;;;;;13.90;9.82;;;18.10;99.90;;;;;;5093970;28;20127;-78
2023/05/05 09:32:47;;;;;;;14.85;10.35;;;18.10;99.90;;;;;;5093614;28;20047;-78
2023/05/05 09:35:14;;;;;;;12.55;10.07;;;18.20;99.90;;;;;;5080634;28;20036;-77
2023/05/05 09:37:39;;;;;;;12.15;9.50;;;18.30;99.90;;;;;;5093778;28;20101;-79
2023/05/05 09:40:08;;;;;;;15.07;10.45;;;18.30;99.90;;;;;;5093128;28;20040;-78
2023/05/05 09:42:35;;;;;;;16.92;10.27;;;18.30;99.90;;;;;;5110743;28;20066;-79
2023/05/05 09:45:00;;;;;;;12.55;10.15;;;18.30;99.90;;;;;;5093951;28;20032;-79
2023/05/05 09:47:34;;;;;;;12.00;8.90;;;18.30;99.90;;;;;;5093242;28;20119;-78
2023/05/05 09:50:00;;;;;;;12.55;9.55;;;18.20;99.90;;;;;;5093270;28;20048;-79
2023/05/05 09:52:26;;;;;;;12.00;9.73;;;18.10;99.90;;;;;;5093807;28;20066;-79
2023/05/05 09:54:56;;;;;;;12.10;9.80;;;18.10;99.90;;;;;;5093164;28;20040;-78
2023/05/05 09:57:39;;;;;;;11.60;9.63;;;18.00;99.90;;;;;;5107437;28;20032;-79
2023/05/05 10:00:06;;;;;;;14.05;9.38;;;18.10;99.90;;;;;;5094187;28;20129;-79
2023/05/05 10:02:34;;;;;;;12.05;9.80;;;18.40;99.90;;;;;;5093842;28;20034;-79
2023/05/05 10:05:14;;;;;;;14.23;10.30;;;18.70;99.90;;;;;;5095021;28;20400;-79
2023/05/05 10:07:41;;;;;;;15.18;10.98;;;19.20;99.90;;;;;;5094913;28;20032;-80
2023/05/05 10:10:10;;;;;;;15.13;11.07;;;19.50;99.90;;;;;;5094899;28;20044;-79
2023/05/05 10:12:36;;;;;;;14.82;10.50;;;19.60;99.90;;;;;;5111313;28;20056;-80
2023/05/05 10:15:03;;;;;;;13.55;11.05;;;19.50;99.90;;;;;;5094185;28;20047;-79
2023/05/05 10:17:37;;;;;;;13.88;10.55;;;19.50;99.90;;;;;;5093209;28;20071;-79
2023/05/05 10:20:03;;;;;;;15.32;11.90;;;19.50;99.90;;;;;;5110474;28;20384;-79
2023/05/05 10:22:33;;;;;;;17.25;11.77;;;19.50;99.90;;;;;;5077325;28;20429;-79
2023/05/05 10:25:12;;;;;;;15.73;12.82;;;19.60;99.90;;;;;;5076944;28;20454;-79
2023/05/05 10:27:48;;;;;;;20.30;14.50;;;19.90;99.90;;;;;;5075728;28;20047;-79
2023/05/05 10:30:23;;;;;;;18.23;14.13;;;20.40;99.90;;;;;;5094260;28;20392;-79
2023/05/05 10:32:52;;;;;;;23.27;16.80;;;20.50;99.90;;;;;;5093288;28;20048;-80
2023/05/05 10:35:23;;;;;;;19.45;14.43;;;20.60;99.90;;;;;;5094339;28;20048;-80
2023/05/05 10:37:49;;;;;;;21.08;16.48;;;20.50;99.90;;;;;;5093814;28;20040;-80
2023/05/05 10:40:16;;;;;;;21.73;17.27;;;20.50;99.90;;;;;;5094527;28;20040;-79
2023/05/05 10:42:42;;;;;;;18.90;15.00;;;20.40;99.90;;;;;;5093620;28;20036;-80
2023/05/05 10:45:08;;;;;;;19.95;15.70;;;20.20;99.90;;;;;;5093452;28;20040;-80
2023/05/05 10:47:35;;;;;;;18.98;14.60;;;20.10;99.90;;;;;;5095072;28;20032;-79
2023/05/05 10:50:25;;;;;;;17.75;14.82;;;20.00;99.90;;;;;;5093697;28;20095;-79
2023/05/05 10:53:27;;;;;;;16.33;13.02;;;20.10;99.90;;;;;;5081828;28;20044;-79
2023/05/05 10:55:52;;;;;;;16.45;12.48;;;20.30;99.90;;;;;;5086892;28;20126;-79
2023/05/05 10:58:38;;;;;;;20.52;15.05;;;20.50;99.90;;;;;;5101508;28;20071;-79
2023/05/05 11:01:06;;;;;;;18.63;15.00;;;20.80;99.90;;;;;;5109431;28;20051;-80
2023/05/05 11:03:33;;;;;;;20.77;15.00;;;21.10;99.90;;;;;;5092448;28;20039;-79
2023/05/05 11:06:06;;;;;;;20.30;14.50;;;21.10;99.90;;;;;;5092451;28;20029;-79
2023/05/05 11:08:43;;;;;;;18.13;13.52;;;21.00;99.90;;;;;;5093206;28;20058;-79
2023/05/05 11:11:10;;;;;;;19.63;15.55;;;20.90;99.90;;;;;;5091765;28;20108;-79
2023/05/05 11:13:37;;;;;;;18.75;12.48;;;20.90;99.90;;;;;;5091253;28;20051;-78
2023/05/05 11:16:04;;;;;;;17.42;13.07;;;20.80;99.90;;;;;;5093123;28;20065;-79
2023/05/05 11:18:39;;;;;;;15.85;11.63;;;20.80;99.90;;;;;;5091769;28;20043;-79
2023/05/05 11:21:16;;;;;;;12.68;11.07;;;20.80;99.90;;;;;;5091787;28;20113;-79
2023/05/05 11:23:49;;;;;;;13.68;11.98;;;20.60;99.90;;;;;;5091424;28;20051;-79
2023/05/05 11:26:16;;;;;;;16.98;13.18;;;20.30;99.90;;;;;;5091431;28;20115;-79
2023/05/05 11:29:02;;;;;;;13.57;11.50;;;20.10;99.90;;;;;;5090965;28;20068;-79
2023/05/05 11:31:32;;;;;;;14.93;11.75;;;20.00;99.90;;;;;;5091453;28;20059;-78
2023/05/05 11:34:24;;;;;;;11.95;9.30;;;20.20;99.90;;;;;;5091167;28;20125;-78
2023/05/05 11:36:51;;;;;;;12.68;11.10;;;20.50;99.90;;;;;;5091225;28;20063;-78
2023/05/05 11:39:26;;;;;;;13.82;10.40;;;20.20;99.90;;;;;;5090858;28;20044;-79
2023/05/05 11:42:13;;;;;;;13.45;9.38;;;20.10;99.90;;;;;;5090766;28;20040;-78
2023/05/05 11:44:40;;;;;;;13.93;9.73;;;19.90;99.90;;;;;;5090709;28;20111;-78
2023/05/05 11:47:05;;;;;;;10.52;9.13;;;19.80;99.90;;;;;;5090900;28;20326;-78
2023/05/05 11:49:32;;;;;;;14.75;9.82;;;20.00;99.90;;;;;;5060953;28;20047;-78
2023/05/05 11:51:59;;;;;;;10.82;8.82;;;20.20;99.90;;;;;;5070322;28;20045;-78
2023/05/05 11:54:26;;;;;;;12.55;8.45;;;20.40;99.90;;;;;;5081284;28;20036;-78
2023/05/05 11:57:06;;;;;;;11.48;8.52;;;20.60;99.90;;;;;;5103655;28;20050;-77
2023/05/05 11:59:35;;;;;;;14.80;10.73;;;20.60;99.90;;;;;;5090365;28;20055;-77
2023/05/05 12:02:02;;;;;;;14.82;9.93;;;20.50;99.90;;;;;;5090381;28;20074;-77
2023/05/05 12:04:30;;;;;;;14.88;10.00;;;20.20;99.90;;;;;;5092005;28;20113;-78
2023/05/05 12:06:58;;;;;;;13.95;9.93;;;20.20;99.90;;;;;;5090500;28;20408;-78
2023/05/05 12:09:23;;;;;;;13.48;10.32;;;20.10;99.90;;;;;;5094332;28;20066;-77
2023/05/05 12:11:54;;;;;;;11.43;9.40;;;20.20;99.90;;;;;;5100309;28;20504;-77
2023/05/05 12:14:20;;;;;;;11.38;8.75;;;20.20;99.90;;;;;;5090148;28;20043;-77
2023/05/05 12:16:55;;;;;;;10.48;7.68;;;20.20;99.90;;;;;;5090585;28;20039;-77
2023/05/05 12:19:21;;;;;;;11.35;7.57;;;20.30;99.90;;;;;;5089998;28;20051;-77
2023/05/05 12:21:47;;;;;;;9.07;6.28;;;20.30;99.90;;;;;;5090474;28;20035;-77
2023/05/05 12:24:13;;;;;;;8.98;5.93;;;20.30;99.90;;;;;;5090031;28;20127;-77
2023/05/05 12:26:38;;;;;;;8.57;5.30;;;20.20;99.90;;;;;;5090046;28;20087;-77
2023/05/05 12:29:04;;;;;;;9.52;5.50;;;20.20;99.90;;;;;;5090034;28;20036;-77
2023/05/05 12:31:37;;;;;;;10.45;6.38;;;20.30;99.90;;;;;;5089969;28;20036;-77
2023/05/05 12:34:04;;;;;;;8.65;6.20;;;20.40;99.90;;;;;;5090055;28;20083;-76
2023/05/05 12:36:31;;;;;;;8.95;5.80;;;20.40;99.90;;;;;;5089822;28;20027;-77
2023/05/05 12:38:57;;;;;;;8.32;4.95;;;20.40;99.90;;;;;;5089738;28;20040;-76
2023/05/05 12:41:22;;;;;;;8.95;5.00;;;20.40;99.90;;;;;;5072977;28;20406;-77
2023/05/05 12:43:55;;;;;;;8.50;5.05;;;20.30;99.90;;;;;;5089964;28;20467;-77
2023/05/05 12:46:21;;;;;;;11.50;5.22;;;20.10;99.90;;;;;;5089923;28;20051;-77